sensor_id;sensor_type;location;lat;lon;timestamp;temperature;humidity
24152;DHT22;12311;50.866;4.332;2024-01-30T00:01:19;11.80;99.90
24152;DHT22;12311;50.866;4.332;2024-01-30T00:03:45;11.80;99.90
24152;DHT22;12311;50.866;4.332;2024-01-30T00:06:11;11.80;99.90
24152;DHT22;12311;50.866;4.332;2024-01-30T00:08:37;11.90;99.90
24152;DHT22;12311;50.866;4.332;2024-01-30T00:11:03;11.90;99.90
24152;DHT22;12311;50.866;4.332;2024-01-30T00:13:29;11.90;99.90
24152;DHT22;12311;50.866;4.332;2024-01-30T00:15:54;11.90;99.90
24152;DHT22;12311;50.866;4.332;2024-01-30T00:18:20;11.90;99.90
24152;DHT22;12311;50.866;4.332;2024-01-30T00:20:47;11.90;99.90
24152;DHT22;12311;50.866;4.332;2024-01-30T00:23:13;11.90;99.90
24152;DHT22;12311;50.866;4.332;2024-01-30T00:25:38;12.00;99.90
24152;DHT22;12311;50.866;4.332;2024-01-30T00:28:04;12.00;99.90
24152;DHT22;12311;50.866;4.332;2024-01-30T00:30:30;12.10;99.90
24152;DHT22;12311;50.866;4.332;2024-01-30T00:32:56;12.10;99.90
24152;DHT22;12311;50.866;4.332;2024-01-30T00:35:21;12.10;99.90
24152;DHT22;12311;50.866;4.332;2024-01-30T00:37:48;12.10;99.90
24152;DHT22;12311;50.866;4.332;2024-01-30T00:40:14;12.10;99.90
24152;DHT22;12311;50.866;4.332;2024-01-30T00:42:44;12.10;99.90
24152;DHT22;12311;50.866;4.332;2024-01-30T00:45:14;12.10;99.90
24152;DHT22;12311;50.866;4.332;2024-01-30T00:47:40;12.20;99.90
24152;DHT22;12311;50.866;4.332;2024-01-30T00:50:06;12.20;99.90
24152;DHT22;12311;50.866;4.332;2024-01-30T00:52:32;12.10;99.90
24152;DHT22;12311;50.866;4.332;2024-01-30T00:54:59;12.20;99.90
24152;DHT22;12311;50.866;4.332;2024-01-30T00:57:24;12.20;99.90
24152;DHT22;12311;50.866;4.332;2024-01-30T00:59:50;12.20;99.90
24152;DHT22;12311;50.866;4.332;2024-01-30T01:02:16;12.20;99.90
24152;DHT22;12311;50.866;4.332;2024-01-30T01:04:43;12.20;99.90
24152;DHT22;12311;50.866;4.332;2024-01-30T01:07:10;12.30;99.90
24152;DHT22;12311;50.866;4.332;2024-01-30T01:09:36;12.40;99.90
24152;DHT22;12311;50.866;4.332;2024-01-30T01:12:02;12.20;99.90
24152;DHT22;12311;50.866;4.332;2024-01-30T01:14:28;12.10;99.90
24152;DHT22;12311;50.866;4.332;2024-01-30T01:16:54;12.10;99.90
24152;DHT22;12311;50.866;4.332;2024-01-30T01:19:19;12.20;99.90
24152;DHT22;12311;50.866;4.332;2024-01-30T01:21:45;12.30;99.90
24152;DHT22;12311;50.866;4.332;2024-01-30T01:24:11;12.30;99.90
24152;DHT22;12311;50.866;4.332;2024-01-30T01:26:37;12.30;99.90
24152;DHT22;12311;50.866;4.332;2024-01-30T01:29:03;12.30;99.90
24152;DHT22;12311;50.866;4.332;2024-01-30T01:31:38;12.30;99.90
24152;DHT22;12311;50.866;4.332;2024-01-30T01:34:12;12.30;99.90
24152;DHT22;12311;50.866;4.332;2024-01-30T01:36:38;12.40;99.90
24152;DHT22;12311;50.866;4.332;2024-01-30T01:39:04;12.40;99.90
24152;DHT22;12311;50.866;4.332;2024-01-30T01:41:33;12.40;99.90
24152;DHT22;12311;50.866;4.332;2024-01-30T01:43:59;12.40;99.90
24152;DHT22;12311;50.866;4.332;2024-01-30T01:46:33;12.40;99.90
24152;DHT22;12311;50.866;4.332;2024-01-30T01:49:02;12.40;99.90
24152;DHT22;12311;50.866;4.332;2024-01-30T01:51:31;12.30;99.90
24152;DHT22;12311;50.866;4.332;2024-01-30T01:54:04;12.40;99.90
24152;DHT22;12311;50.866;4.332;2024-01-30T01:56:31;12.30;99.90
24152;DHT22;12311;50.866;4.332;2024-01-30T01:59:00;12.30;99.90
24152;DHT22;12311;50.866;4.332;2024-01-30T02:01:27;12.40;99.90
24152;DHT22;12311;50.866;4.332;2024-01-30T02:03:54;12.40;99.90
24152;DHT22;12311;50.866;4.332;2024-01-30T02:06:20;12.40;99.90
24152;DHT22;12311;50.866;4.332;2024-01-30T02:08:46;12.40;99.90
24152;DHT22;12311;50.866;4.332;2024-01-30T02:11:11;12.40;99.90
24152;DHT22;12311;50.866;4.332;2024-01-30T02:13:37;12.40;99.90
24152;DHT22;12311;50.866;4.332;2024-01-30T02:16:03;12.40;99.90
24152;DHT22;12311;50.866;4.332;2024-01-30T02:18:28;12.40;99.90
24152;DHT22;12311;50.866;4.332;2024-01-30T02:20:56;12.30;99.90
24152;DHT22;12311;50.866;4.332;2024-01-30T02:23:24;12.40;99.90
24152;DHT22;12311;50.866;4.332;2024-01-30T02:25:51;12.30;99.90
24152;DHT22;12311;50.866;4.332;2024-01-30T02:28:19;12.40;99.90
24152;DHT22;12311;50.866;4.332;2024-01-30T02:30:46;12.40;99.90
24152;DHT22;12311;50.866;4.332;2024-01-30T02:33:12;12.40;99.90
24152;DHT22;12311;50.866;4.332;2024-01-30T02:35:38;12.50;99.90
24152;DHT22;12311;50.866;4.332;2024-01-30T02:38:04;12.50;99.90
24152;DHT22;12311;50.866;4.332;2024-01-30T02:40:30;12.50;99.90
24152;DHT22;12311;50.866;4.332;2024-01-30T02:42:57;12.50;99.90
24152;DHT22;12311;50.866;4.332;2024-01-30T02:45:23;12.50;99.90
24152;DHT22;12311;50.866;4.332;2024-01-30T02:47:49;12.40;99.90
24152;DHT22;12311;50.866;4.332;2024-01-30T02:50:14;12.40;99.90
24152;DHT22;12311;50.866;4.332;2024-01-30T02:52:40;12.40;99.90
24152;DHT22;12311;50.866;4.332;2024-01-30T02:55:06;12.50;99.90
24152;DHT22;12311;50.866;4.332;2024-01-30T02:57:32;12.40;99.90
24152;DHT22;12311;50.866;4.332;2024-01-30T02:59:58;12.40;99.90
24152;DHT22;12311;50.866;4.332;2024-01-30T03:02:24;12.40;99.90
24152;DHT22;12311;50.866;4.332;2024-01-30T03:04:49;12.50;99.90
24152;DHT22;12311;50.866;4.332;2024-01-30T03:07:15;12.40;99.90
24152;DHT22;12311;50.866;4.332;2024-01-30T03:09:44;12.40;99.90
24152;DHT22;12311;50.866;4.332;2024-01-30T03:12:10;12.50;99.90
24152;DHT22;12311;50.866;4.332;2024-01-30T03:14:35;12.40;99.90
24152;DHT22;12311;50.866;4.332;2024-01-30T03:17:01;12.40;99.90
24152;DHT22;12311;50.866;4.332;2024-01-30T03:19:27;12.50;99.90
24152;DHT22;12311;50.866;4.332;2024-01-30T03:21:54;12.40;99.90
24152;DHT22;12311;50.866;4.332;2024-01-30T03:24:19;12.40;99.90
24152;DHT22;12311;50.866;4.332;2024-01-30T03:26:45;12.40;99.90
24152;DHT22;12311;50.866;4.332;2024-01-30T03:29:11;12.40;99.90
24152;DHT22;12311;50.866;4.332;2024-01-30T03:31:36;12.50;99.90
24152;DHT22;12311;50.866;4.332;2024-01-30T03:34:02;12.40;99.90
24152;DHT22;12311;50.866;4.332;2024-01-30T03:36:28;12.30;99.90
24152;DHT22;12311;50.866;4.332;2024-01-30T03:38:54;12.20;99.90
24152;DHT22;12311;50.866;4.332;2024-01-30T03:41:19;12.20;99.90
24152;DHT22;12311;50.866;4.332;2024-01-30T03:43:46;12.20;99.90
24152;DHT22;12311;50.866;4.332;2024-01-30T03:46:12;12.20;99.90
24152;DHT22;12311;50.866;4.332;2024-01-30T03:48:38;12.10;99.90
24152;DHT22;12311;50.866;4.332;2024-01-30T03:51:04;12.20;99.90
24152;DHT22;12311;50.866;4.332;2024-01-30T03:53:30;12.10;99.90
24152;DHT22;12311;50.866;4.332;2024-01-30T03:55:56;12.10;99.90
24152;DHT22;12311;50.866;4.332;2024-01-30T03:58:22;12.10;99.90
24152;DHT22;12311;50.866;4.332;2024-01-30T04:00:48;12.10;99.90
24152;DHT22;12311;50.866;4.332;2024-01-30T04:03:17;12.10;99.90
24152;DHT22;12311;50.866;4.332;2024-01-30T04:05:43;12.20;99.90
24152;DHT22;12311;50.866;4.332;2024-01-30T04:08:09;12.10;99.90
24152;DHT22;12311;50.866;4.332;2024-01-30T04:10:35;12.10;99.90
24152;DHT22;12311;50.866;4.332;2024-01-30T04:13:01;12.10;99.90
24152;DHT22;12311;50.866;4.332;2024-01-30T04:15:27;12.10;99.90
24152;DHT22;12311;50.866;4.332;2024-01-30T04:17:53;12.10;99.90
24152;DHT22;12311;50.866;4.332;2024-01-30T04:20:19;12.10;99.90
24152;DHT22;12311;50.866;4.332;2024-01-30T04:22:45;12.10;99.90
24152;DHT22;12311;50.866;4.332;2024-01-30T04:25:14;12.20;99.90
24152;DHT22;12311;50.866;4.332;2024-01-30T04:27:40;12.20;99.90
24152;DHT22;12311;50.866;4.332;2024-01-30T04:30:06;12.20;99.90
24152;DHT22;12311;50.866;4.332;2024-01-30T04:32:32;12.20;99.90
24152;DHT22;12311;50.866;4.332;2024-01-30T04:34:58;12.10;99.90
24152;DHT22;12311;50.866;4.332;2024-01-30T04:37:24;12.00;99.90
24152;DHT22;12311;50.866;4.332;2024-01-30T04:39:50;12.10;99.90
24152;DHT22;12311;50.866;4.332;2024-01-30T04:42:17;12.10;99.90
24152;DHT22;12311;50.866;4.332;2024-01-30T04:44:42;12.10;99.90
24152;DHT22;12311;50.866;4.332;2024-01-30T04:47:08;12.10;99.90
24152;DHT22;12311;50.866;4.332;2024-01-30T04:49:35;12.10;99.90
24152;DHT22;12311;50.866;4.332;2024-01-30T04:52:01;12.10;99.90
24152;DHT22;12311;50.866;4.332;2024-01-30T04:54:27;12.00;99.90
24152;DHT22;12311;50.866;4.332;2024-01-30T04:56:53;12.00;99.90
24152;DHT22;12311;50.866;4.332;2024-01-30T04:59:18;12.00;99.90
24152;DHT22;12311;50.866;4.332;2024-01-30T05:01:44;12.00;99.90
24152;DHT22;12311;50.866;4.332;2024-01-30T05:04:10;12.00;99.90
24152;DHT22;12311;50.866;4.332;2024-01-30T05:06:37;12.00;99.90
24152;DHT22;12311;50.866;4.332;2024-01-30T05:09:03;12.10;99.90
24152;DHT22;12311;50.866;4.332;2024-01-30T05:11:36;12.00;99.90
24152;DHT22;12311;50.866;4.332;2024-01-30T05:14:02;12.10;99.90
24152;DHT22;12311;50.866;4.332;2024-01-30T05:16:28;12.10;99.90
24152;DHT22;12311;50.866;4.332;2024-01-30T05:18:53;12.00;99.90
24152;DHT22;12311;50.866;4.332;2024-01-30T05:21:19;12.00;99.90
24152;DHT22;12311;50.866;4.332;2024-01-30T05:23:45;12.00;99.90
24152;DHT22;12311;50.866;4.332;2024-01-30T05:26:11;12.00;99.90
24152;DHT22;12311;50.866;4.332;2024-01-30T05:28:36;12.00;99.90
24152;DHT22;12311;50.866;4.332;2024-01-30T05:31:03;12.00;99.90
24152;DHT22;12311;50.866;4.332;2024-01-30T05:33:29;11.90;99.90
24152;DHT22;12311;50.866;4.332;2024-01-30T05:35:54;11.90;99.90
24152;DHT22;12311;50.866;4.332;2024-01-30T05:38:20;11.90;99.90
24152;DHT22;12311;50.866;4.332;2024-01-30T05:40:46;11.90;99.90
24152;DHT22;12311;50.866;4.332;2024-01-30T05:43:12;11.90;99.90
24152;DHT22;12311;50.866;4.332;2024-01-30T05:45:38;12.00;99.90
24152;DHT22;12311;50.866;4.332;2024-01-30T05:48:04;12.00;99.90
24152;DHT22;12311;50.866;4.332;2024-01-30T05:50:30;12.10;99.90
24152;DHT22;12311;50.866;4.332;2024-01-30T05:52:56;12.00;99.90
24152;DHT22;12311;50.866;4.332;2024-01-30T05:55:21;11.90;99.90
24152;DHT22;12311;50.866;4.332;2024-01-30T05:57:47;12.00;99.90
24152;DHT22;12311;50.866;4.332;2024-01-30T06:00:13;12.00;99.90
24152;DHT22;12311;50.866;4.332;2024-01-30T06:02:39;12.00;99.90
24152;DHT22;12311;50.866;4.332;2024-01-30T06:05:05;11.90;99.90
24152;DHT22;12311;50.866;4.332;2024-01-30T06:07:31;11.80;99.90
24152;DHT22;12311;50.866;4.332;2024-01-30T06:09:57;11.80;99.90
24152;DHT22;12311;50.866;4.332;2024-01-30T06:12:23;11.80;99.90
24152;DHT22;12311;50.866;4.332;2024-01-30T06:14:49;11.80;99.90
24152;DHT22;12311;50.866;4.332;2024-01-30T06:17:14;11.80;99.90
24152;DHT22;12311;50.866;4.332;2024-01-30T06:19:40;11.70;99.90
24152;DHT22;12311;50.866;4.332;2024-01-30T06:22:06;11.70;99.90
24152;DHT22;12311;50.866;4.332;2024-01-30T06:24:32;11.70;99.90
24152;DHT22;12311;50.866;4.332;2024-01-30T06:26:59;11.80;99.90
24152;DHT22;12311;50.866;4.332;2024-01-30T06:29:24;11.70;99.90
24152;DHT22;12311;50.866;4.332;2024-01-30T06:31:52;11.70;99.90
24152;DHT22;12311;50.866;4.332;2024-01-30T06:34:17;11.70;99.90
24152;DHT22;12311;50.866;4.332;2024-01-30T06:36:43;11.70;99.90
24152;DHT22;12311;50.866;4.332;2024-01-30T06:39:09;11.60;99.90
24152;DHT22;12311;50.866;4.332;2024-01-30T06:41:34;11.70;99.90
24152;DHT22;12311;50.866;4.332;2024-01-30T06:44:02;11.70;99.90
24152;DHT22;12311;50.866;4.332;2024-01-30T06:46:28;11.70;99.90
24152;DHT22;12311;50.866;4.332;2024-01-30T06:48:54;11.70;99.90
24152;DHT22;12311;50.866;4.332;2024-01-30T06:51:19;11.70;99.90
24152;DHT22;12311;50.866;4.332;2024-01-30T06:53:45;11.70;99.90
24152;DHT22;12311;50.866;4.332;2024-01-30T06:56:11;11.70;99.90
24152;DHT22;12311;50.866;4.332;2024-01-30T06:58:36;11.70;99.90
24152;DHT22;12311;50.866;4.332;2024-01-30T07:01:02;11.70;99.90
24152;DHT22;12311;50.866;4.332;2024-01-30T07:03:28;11.70;99.90
24152;DHT22;12311;50.866;4.332;2024-01-30T07:05:54;11.70;99.90
24152;DHT22;12311;50.866;4.332;2024-01-30T07:08:19;11.80;99.90
24152;DHT22;12311;50.866;4.332;2024-01-30T07:10:45;11.80;99.90
24152;DHT22;12311;50.866;4.332;2024-01-30T07:13:11;11.90;99.90
24152;DHT22;12311;50.866;4.332;2024-01-30T07:15:37;12.00;99.90
24152;DHT22;12311;50.866;4.332;2024-01-30T07:18:03;12.00;99.90
24152;DHT22;12311;50.866;4.332;2024-01-30T07:20:30;11.90;99.90
24152;DHT22;12311;50.866;4.332;2024-01-30T07:22:58;12.00;99.90
24152;DHT22;12311;50.866;4.332;2024-01-30T07:25:24;12.00;99.90
24152;DHT22;12311;50.866;4.332;2024-01-30T07:27:56;12.00;99.90
24152;DHT22;12311;50.866;4.332;2024-01-30T07:30:21;11.90;99.90
24152;DHT22;12311;50.866;4.332;2024-01-30T07:32:48;12.00;99.90
24152;DHT22;12311;50.866;4.332;2024-01-30T07:35:14;12.00;99.90
24152;DHT22;12311;50.866;4.332;2024-01-30T07:37:40;12.00;99.90
24152;DHT22;12311;50.866;4.332;2024-01-30T07:40:06;12.00;99.90
24152;DHT22;12311;50.866;4.332;2024-01-30T07:42:32;12.00;99.90
24152;DHT22;12311;50.866;4.332;2024-01-30T07:44:59;12.00;99.90
24152;DHT22;12311;50.866;4.332;2024-01-30T07:47:25;12.00;99.90
24152;DHT22;12311;50.866;4.332;2024-01-30T07:49:50;12.00;99.90
24152;DHT22;12311;50.866;4.332;2024-01-30T07:52:16;12.00;99.90
24152;DHT22;12311;50.866;4.332;2024-01-30T07:54:49;12.10;99.90
24152;DHT22;12311;50.866;4.332;2024-01-30T07:57:15;12.10;99.90
24152;DHT22;12311;50.866;4.332;2024-01-30T07:59:44;12.10;99.90
24152;DHT22;12311;50.866;4.332;2024-01-30T08:02:13;12.00;99.90
24152;DHT22;12311;50.866;4.332;2024-01-30T08:04:39;12.00;99.90
24152;DHT22;12311;50.866;4.332;2024-01-30T08:07:05;12.00;99.90
24152;DHT22;12311;50.866;4.332;2024-01-30T08:09:31;12.10;99.90
24152;DHT22;12311;50.866;4.332;2024-01-30T08:11:56;11.90;99.90
24152;DHT22;12311;50.866;4.332;2024-01-30T08:14:22;11.90;99.90
24152;DHT22;12311;50.866;4.332;2024-01-30T08:16:48;11.90;99.90
24152;DHT22;12311;50.866;4.332;2024-01-30T08:19:17;12.00;99.90
24152;DHT22;12311;50.866;4.332;2024-01-30T08:21:43;12.00;99.90
24152;DHT22;12311;50.866;4.332;2024-01-30T08:24:09;12.00;99.90
24152;DHT22;12311;50.866;4.332;2024-01-30T08:26:34;12.00;99.90
24152;DHT22;12311;50.866;4.332;2024-01-30T08:29:01;11.90;99.90
24152;DHT22;12311;50.866;4.332;2024-01-30T08:31:27;11.90;99.90
24152;DHT22;12311;50.866;4.332;2024-01-30T08:33:53;11.90;99.90
24152;DHT22;12311;50.866;4.332;2024-01-30T08:36:19;12.00;99.90
24152;DHT22;12311;50.866;4.332;2024-01-30T08:38:45;12.10;99.90
24152;DHT22;12311;50.866;4.332;2024-01-30T08:41:11;12.20;99.90
24152;DHT22;12311;50.866;4.332;2024-01-30T08:43:36;12.10;99.90
24152;DHT22;12311;50.866;4.332;2024-01-30T08:46:03;12.00;99.90
24152;DHT22;12311;50.866;4.332;2024-01-30T08:48:29;12.10;99.90
24152;DHT22;12311;50.866;4.332;2024-01-30T08:50:54;12.00;99.90
24152;DHT22;12311;50.866;4.332;2024-01-30T08:53:23;12.10;99.90
24152;DHT22;12311;50.866;4.332;2024-01-30T08:55:48;12.00;99.90
24152;DHT22;12311;50.866;4.332;2024-01-30T08:58:14;12.00;99.90
24152;DHT22;12311;50.866;4.332;2024-01-30T09:00:41;12.00;99.90
24152;DHT22;12311;50.866;4.332;2024-01-30T09:03:06;11.90;99.90
24152;DHT22;12311;50.866;4.332;2024-01-30T09:05:32;11.90;99.90
24152;DHT22;12311;50.866;4.332;2024-01-30T09:07:58;12.00;99.90
24152;DHT22;12311;50.866;4.332;2024-01-30T09:10:23;12.10;99.90
24152;DHT22;12311;50.866;4.332;2024-01-30T09:12:50;12.00;99.90
24152;DHT22;12311;50.866;4.332;2024-01-30T09:15:16;12.00;99.90
24152;DHT22;12311;50.866;4.332;2024-01-30T09:17:42;12.00;99.90
24152;DHT22;12311;50.866;4.332;2024-01-30T09:20:08;12.10;99.90
24152;DHT22;12311;50.866;4.332;2024-01-30T09:22:34;12.10;99.90
24152;DHT22;12311;50.866;4.332;2024-01-30T09:25:00;12.20;99.90
24152;DHT22;12311;50.866;4.332;2024-01-30T09:27:26;12.10;99.90
24152;DHT22;12311;50.866;4.332;2024-01-30T09:29:51;12.20;99.90
24152;DHT22;12311;50.866;4.332;2024-01-30T09:32:17;12.30;99.90
24152;DHT22;12311;50.866;4.332;2024-01-30T09:34:43;12.20;99.90
24152;DHT22;12311;50.866;4.332;2024-01-30T09:37:09;12.10;99.90
24152;DHT22;12311;50.866;4.332;2024-01-30T09:39:34;12.10;99.90
24152;DHT22;12311;50.866;4.332;2024-01-30T09:44:51;12.10;99.90
24152;DHT22;12311;50.866;4.332;2024-01-30T09:47:17;12.20;99.90
24152;DHT22;12311;50.866;4.332;2024-01-30T09:49:44;12.20;99.90
24152;DHT22;12311;50.866;4.332;2024-01-30T09:52:10;12.10;99.90
24152;DHT22;12311;50.866;4.332;2024-01-30T09:54:36;12.00;99.90
24152;DHT22;12311;50.866;4.332;2024-01-30T09:57:04;11.90;99.90
24152;DHT22;12311;50.866;4.332;2024-01-30T09:59:30;12.00;99.90
24152;DHT22;12311;50.866;4.332;2024-01-30T10:01:56;11.90;99.90
24152;DHT22;12311;50.866;4.332;2024-01-30T10:04:22;11.90;99.90
24152;DHT22;12311;50.866;4.332;2024-01-30T10:06:48;12.00;99.90
24152;DHT22;12311;50.866;4.332;2024-01-30T10:09:14;11.90;99.90
24152;DHT22;12311;50.866;4.332;2024-01-30T10:11:39;11.90;99.90
24152;DHT22;12311;50.866;4.332;2024-01-30T10:14:05;11.90;99.90
24152;DHT22;12311;50.866;4.332;2024-01-30T10:16:31;11.90;99.90
24152;DHT22;12311;50.866;4.332;2024-01-30T10:18:57;12.00;99.90
24152;DHT22;12311;50.866;4.332;2024-01-30T10:21:23;12.10;99.90
24152;DHT22;12311;50.866;4.332;2024-01-30T10:23:49;12.10;99.90
24152;DHT22;12311;50.866;4.332;2024-01-30T10:26:16;12.10;99.90
24152;DHT22;12311;50.866;4.332;2024-01-30T10:28:43;12.00;99.90
24152;DHT22;12311;50.866;4.332;2024-01-30T10:31:08;11.90;99.90
24152;DHT22;12311;50.866;4.332;2024-01-30T10:33:34;11.80;99.90
24152;DHT22;12311;50.866;4.332;2024-01-30T10:36:01;11.80;99.90
24152;DHT22;12311;50.866;4.332;2024-01-30T10:38:31;11.80;99.90
24152;DHT22;12311;50.866;4.332;2024-01-30T10:40:59;11.90;99.90
24152;DHT22;12311;50.866;4.332;2024-01-30T10:43:33;11.90;99.90
24152;DHT22;12311;50.866;4.332;2024-01-30T10:46:21;11.90;99.90
24152;DHT22;12311;50.866;4.332;2024-01-30T10:48:57;12.00;99.90
24152;DHT22;12311;50.866;4.332;2024-01-30T10:51:26;12.10;99.90
24152;DHT22;12311;50.866;4.332;2024-01-30T10:53:52;12.00;99.90
24152;DHT22;12311;50.866;4.332;2024-01-30T10:56:20;12.10;99.90
24152;DHT22;12311;50.866;4.332;2024-01-30T10:58:52;12.20;99.90
24152;DHT22;12311;50.866;4.332;2024-01-30T11:01:20;12.10;99.90
24152;DHT22;12311;50.866;4.332;2024-01-30T11:03:52;12.10;99.90
24152;DHT22;12311;50.866;4.332;2024-01-30T11:06:18;12.00;99.90
24152;DHT22;12311;50.866;4.332;2024-01-30T11:09:03;11.80;99.90
24152;DHT22;12311;50.866;4.332;2024-01-30T11:11:29;11.60;99.90
24152;DHT22;12311;50.866;4.332;2024-01-30T11:13:55;11.40;99.90
24152;DHT22;12311;50.866;4.332;2024-01-30T11:16:21;11.40;99.90
24152;DHT22;12311;50.866;4.332;2024-01-30T11:18:50;11.40;99.90
24152;DHT22;12311;50.866;4.332;2024-01-30T11:21:19;11.30;99.90
24152;DHT22;12311;50.866;4.332;2024-01-30T11:23:44;11.40;99.90
24152;DHT22;12311;50.866;4.332;2024-01-30T11:26:11;11.30;99.90
24152;DHT22;12311;50.866;4.332;2024-01-30T11:28:37;11.30;99.90
24152;DHT22;12311;50.866;4.332;2024-01-30T11:31:05;11.30;99.90
24152;DHT22;12311;50.866;4.332;2024-01-30T11:33:31;11.30;99.90
24152;DHT22;12311;50.866;4.332;2024-01-30T11:35:58;11.40;99.90
24152;DHT22;12311;50.866;4.332;2024-01-30T11:38:26;11.50;99.90
24152;DHT22;12311;50.866;4.332;2024-01-30T11:40:54;11.60;99.90
24152;DHT22;12311;50.866;4.332;2024-01-30T11:43:21;11.70;99.90
24152;DHT22;12311;50.866;4.332;2024-01-30T11:45:47;11.70;99.90
24152;DHT22;12311;50.866;4.332;2024-01-30T11:48:12;11.80;98.70
24152;DHT22;12311;50.866;4.332;2024-01-30T11:50:39;11.80;99.10
24152;DHT22;12311;50.866;4.332;2024-01-30T11:53:05;11.70;98.60
24152;DHT22;12311;50.866;4.332;2024-01-30T11:55:32;11.70;98.80
24152;DHT22;12311;50.866;4.332;2024-01-30T11:57:58;11.80;98.10
24152;DHT22;12311;50.866;4.332;2024-01-30T12:00:24;12.00;97.50
24152;DHT22;12311;50.866;4.332;2024-01-30T12:02:51;12.00;96.10
24152;DHT22;12311;50.866;4.332;2024-01-30T12:05:27;12.00;96.50
24152;DHT22;12311;50.866;4.332;2024-01-30T12:07:53;11.90;96.70
24152;DHT22;12311;50.866;4.332;2024-01-30T12:10:19;11.90;96.80
24152;DHT22;12311;50.866;4.332;2024-01-30T12:12:49;11.80;96.90
24152;DHT22;12311;50.866;4.332;2024-01-30T12:15:15;11.90;97.70
24152;DHT22;12311;50.866;4.332;2024-01-30T12:17:41;11.70;97.80
24152;DHT22;12311;50.866;4.332;2024-01-30T12:20:11;11.60;98.20
24152;DHT22;12311;50.866;4.332;2024-01-30T12:22:42;11.50;99.50
24152;DHT22;12311;50.866;4.332;2024-01-30T12:25:12;11.70;97.90
24152;DHT22;12311;50.866;4.332;2024-01-30T12:27:39;11.80;95.60
24152;DHT22;12311;50.866;4.332;2024-01-30T12:30:06;11.70;95.80
24152;DHT22;12311;50.866;4.332;2024-01-30T12:32:37;11.50;96.80
24152;DHT22;12311;50.866;4.332;2024-01-30T12:35:08;11.60;96.80
24152;DHT22;12311;50.866;4.332;2024-01-30T12:37:35;11.50;96.40
24152;DHT22;12311;50.866;4.332;2024-01-30T12:40:01;11.60;96.50
24152;DHT22;12311;50.866;4.332;2024-01-30T12:42:27;11.60;96.60
24152;DHT22;12311;50.866;4.332;2024-01-30T12:44:53;11.80;95.90
24152;DHT22;12311;50.866;4.332;2024-01-30T12:47:21;11.80;95.40
24152;DHT22;12311;50.866;4.332;2024-01-30T12:49:47;11.70;96.00
24152;DHT22;12311;50.866;4.332;2024-01-30T12:52:16;11.70;96.10
24152;DHT22;12311;50.866;4.332;2024-01-30T12:54:42;11.70;95.70
24152;DHT22;12311;50.866;4.332;2024-01-30T12:57:09;11.70;95.90
24152;DHT22;12311;50.866;4.332;2024-01-30T12:59:34;11.70;96.00
24152;DHT22;12311;50.866;4.332;2024-01-30T13:02:01;11.70;97.00
24152;DHT22;12311;50.866;4.332;2024-01-30T13:04:27;11.60;97.10
24152;DHT22;12311;50.866;4.332;2024-01-30T13:06:54;11.50;96.80
24152;DHT22;12311;50.866;4.332;2024-01-30T13:09:19;11.40;97.30
24152;DHT22;12311;50.866;4.332;2024-01-30T13:11:45;11.30;97.60
24152;DHT22;12311;50.866;4.332;2024-01-30T13:14:11;11.10;97.90
24152;DHT22;12311;50.866;4.332;2024-01-30T13:16:37;11.20;97.10
24152;DHT22;12311;50.866;4.332;2024-01-30T13:19:02;11.20;97.50
24152;DHT22;12311;50.866;4.332;2024-01-30T13:21:28;11.10;97.20
24152;DHT22;12311;50.866;4.332;2024-01-30T13:23:54;11.20;96.50
24152;DHT22;12311;50.866;4.332;2024-01-30T13:26:21;11.20;97.30
24152;DHT22;12311;50.866;4.332;2024-01-30T13:28:46;11.20;96.60
24152;DHT22;12311;50.866;4.332;2024-01-30T13:31:13;11.30;95.90
24152;DHT22;12311;50.866;4.332;2024-01-30T13:33:40;11.20;95.20
24152;DHT22;12311;50.866;4.332;2024-01-30T13:36:07;11.30;93.90
24152;DHT22;12311;50.866;4.332;2024-01-30T13:38:32;11.50;93.40
24152;DHT22;12311;50.866;4.332;2024-01-30T13:40:59;11.50;91.60
24152;DHT22;12311;50.866;4.332;2024-01-30T13:43:25;11.70;89.60
24152;DHT22;12311;50.866;4.332;2024-01-30T13:45:50;11.70;88.20
24152;DHT22;12311;50.866;4.332;2024-01-30T13:48:16;11.70;88.70
24152;DHT22;12311;50.866;4.332;2024-01-30T13:50:42;11.70;88.70
24152;DHT22;12311;50.866;4.332;2024-01-30T13:53:08;11.60;90.20
24152;DHT22;12311;50.866;4.332;2024-01-30T13:55:34;11.50;90.80
24152;DHT22;12311;50.866;4.332;2024-01-30T13:58:00;11.60;91.90
24152;DHT22;12311;50.866;4.332;2024-01-30T14:00:27;11.50;92.10
24152;DHT22;12311;50.866;4.332;2024-01-30T14:02:53;11.40;92.80
24152;DHT22;12311;50.866;4.332;2024-01-30T14:05:22;11.40;93.10
24152;DHT22;12311;50.866;4.332;2024-01-30T14:07:48;11.30;94.80
24152;DHT22;12311;50.866;4.332;2024-01-30T14:10:15;11.30;96.20
24152;DHT22;12311;50.866;4.332;2024-01-30T14:12:42;11.20;97.20
24152;DHT22;12311;50.866;4.332;2024-01-30T14:15:09;11.30;97.80
24152;DHT22;12311;50.866;4.332;2024-01-30T14:17:35;11.20;97.70
24152;DHT22;12311;50.866;4.332;2024-01-30T14:20:02;11.10;97.90
24152;DHT22;12311;50.866;4.332;2024-01-30T14:22:29;11.10;98.10
24152;DHT22;12311;50.866;4.332;2024-01-30T14:24:55;11.10;97.20
24152;DHT22;12311;50.866;4.332;2024-01-30T14:27:21;11.20;96.50
24152;DHT22;12311;50.866;4.332;2024-01-30T14:29:47;11.20;96.10
24152;DHT22;12311;50.866;4.332;2024-01-30T14:32:13;11.10;98.20
24152;DHT22;12311;50.866;4.332;2024-01-30T14:34:38;11.10;99.50
24152;DHT22;12311;50.866;4.332;2024-01-30T14:37:04;11.00;99.90
24152;DHT22;12311;50.866;4.332;2024-01-30T14:39:30;10.90;99.90
24152;DHT22;12311;50.866;4.332;2024-01-30T14:41:56;10.90;99.90
24152;DHT22;12311;50.866;4.332;2024-01-30T14:44:21;10.80;99.90
24152;DHT22;12311;50.866;4.332;2024-01-30T14:46:48;10.90;99.90
24152;DHT22;12311;50.866;4.332;2024-01-30T14:49:14;10.70;99.90
24152;DHT22;12311;50.866;4.332;2024-01-30T14:51:41;10.60;99.90
24152;DHT22;12311;50.866;4.332;2024-01-30T14:54:06;10.60;99.90
24152;DHT22;12311;50.866;4.332;2024-01-30T14:56:32;10.50;99.90
24152;DHT22;12311;50.866;4.332;2024-01-30T14:58:58;10.40;99.90
24152;DHT22;12311;50.866;4.332;2024-01-30T15:01:24;10.40;99.90
24152;DHT22;12311;50.866;4.332;2024-01-30T15:03:50;10.50;99.90
24152;DHT22;12311;50.866;4.332;2024-01-30T15:06:20;10.40;99.90
24152;DHT22;12311;50.866;4.332;2024-01-30T15:08:49;10.40;99.90
24152;DHT22;12311;50.866;4.332;2024-01-30T15:11:15;10.40;99.90
24152;DHT22;12311;50.866;4.332;2024-01-30T15:13:41;10.40;99.90
24152;DHT22;12311;50.866;4.332;2024-01-30T15:16:07;10.50;99.90
24152;DHT22;12311;50.866;4.332;2024-01-30T15:18:33;10.50;99.90
24152;DHT22;12311;50.866;4.332;2024-01-30T15:20:59;10.40;99.90
24152;DHT22;12311;50.866;4.332;2024-01-30T15:23:24;10.40;99.90
24152;DHT22;12311;50.866;4.332;2024-01-30T15:25:50;10.50;99.90
24152;DHT22;12311;50.866;4.332;2024-01-30T15:28:16;10.40;99.90